createdAt,value
2023-02-12T00:01:08.960Z,16.83
2023-02-12T00:03:37.105Z,15.33
2023-02-12T00:06:07.221Z,15.97
2023-02-12T00:08:35.627Z,15.57
2023-02-12T00:11:09.258Z,17.13
2023-02-12T00:13:37.783Z,17.37
2023-02-12T00:16:07.444Z,18.23
2023-02-12T00:18:35.448Z,17.73
2023-02-12T00:21:04.109Z,16.97
2023-02-12T00:23:33.733Z,17.00
2023-02-12T00:26:01.804Z,16.93
2023-02-12T00:28:29.797Z,16.13
2023-02-12T00:30:57.883Z,15.50
2023-02-12T00:33:28.112Z,17.63
2023-02-12T00:35:58.429Z,16.13
2023-02-12T00:38:26.568Z,17.97
2023-02-12T00:40:55.966Z,17.23
2023-02-12T00:43:23.959Z,17.80
2023-02-12T00:45:51.961Z,16.10
2023-02-12T00:48:21.242Z,16.03
2023-02-12T00:50:49.834Z,16.73
2023-02-12T00:53:18.248Z,16.73
2023-02-12T00:55:46.534Z,17.53
2023-02-12T00:58:18.811Z,16.00
2023-02-12T01:00:47.128Z,16.83
2023-02-12T01:03:15.170Z,15.70
2023-02-12T01:05:43.178Z,15.63
2023-02-12T01:08:13.585Z,16.00
2023-02-12T01:10:41.965Z,15.10
2023-02-12T01:13:13.953Z,17.00
2023-02-12T01:15:43.891Z,16.00
2023-02-12T01:18:12.565Z,16.37
2023-02-12T01:20:40.909Z,14.47
2023-02-12T01:23:09.035Z,14.57
2023-02-12T01:25:38.798Z,13.60
2023-02-12T01:28:06.829Z,13.67
2023-02-12T01:30:34.801Z,13.20
2023-02-12T01:33:04.175Z,13.27
2023-02-12T01:35:32.139Z,14.47
2023-02-12T01:38:00.119Z,12.10
2023-02-12T01:40:28.439Z,13.37
2023-02-12T01:42:56.749Z,12.67
2023-02-12T01:46:00.167Z,13.20
2023-02-12T01:48:33.672Z,12.50
2023-02-12T01:51:03.915Z,13.00
2023-02-12T01:53:38.352Z,13.30
2023-02-12T01:56:07.668Z,12.83
2023-02-12T01:58:39.276Z,12.83
2023-02-12T02:01:14.745Z,14.20
2023-02-12T02:03:46.824Z,13.90
2023-02-12T02:06:18.704Z,13.97
2023-02-12T02:08:47.594Z,14.80
2023-02-12T02:11:33.510Z,14.70
2023-02-12T02:14:19.280Z,15.37
2023-02-12T02:16:55.368Z,15.23
2023-02-12T02:19:37.913Z,16.13
2023-02-12T02:22:21.966Z,16.10
2023-02-12T02:25:09.724Z,17.23
2023-02-12T02:27:48.630Z,17.23
2023-02-12T02:30:35.408Z,16.60
2023-02-12T02:33:16.636Z,17.33
2023-02-12T02:35:53.646Z,17.63
2023-02-12T02:38:30.030Z,17.43
2023-02-12T02:41:06.391Z,18.03
2023-02-12T02:43:39.456Z,17.47
2023-02-12T02:46:15.339Z,17.33
2023-02-12T02:48:47.820Z,17.50
2023-02-12T02:51:20.380Z,18.57
2023-02-12T02:53:52.783Z,18.07
2023-02-12T02:56:24.029Z,17.57
2023-02-12T02:58:56.338Z,18.33
2023-02-12T03:01:30.646Z,17.33
2023-02-12T03:04:04.714Z,16.67
2023-02-12T03:06:40.175Z,16.40
2023-02-12T03:09:18.411Z,17.27
2023-02-12T03:11:47.292Z,16.27
2023-02-12T03:14:19.743Z,16.20
2023-02-12T03:16:54.282Z,15.70
2023-02-12T03:19:26.203Z,15.00
2023-02-12T03:21:58.357Z,14.90
2023-02-12T03:24:31.872Z,14.63
2023-02-12T03:27:06.046Z,15.00
2023-02-12T03:29:34.331Z,16.37
2023-02-12T03:32:18.992Z,15.00
2023-02-12T03:34:51.583Z,16.67
2023-02-12T03:37:23.399Z,16.70
2023-02-12T03:39:57.715Z,16.07
2023-02-12T03:42:36.547Z,17.27
2023-02-12T03:45:11.357Z,17.07
2023-02-12T03:47:47.401Z,17.67
2023-02-12T03:50:19.137Z,17.07
2023-02-12T03:52:48.298Z,16.70
2023-02-12T03:55:18.029Z,17.63
2023-02-12T03:57:50.242Z,18.73
2023-02-12T04:00:21.531Z,17.30
2023-02-12T04:02:51.243Z,15.77
2023-02-12T04:05:22.696Z,16.37
2023-02-12T04:07:51.309Z,15.87
2023-02-12T04:10:23.166Z,17.57
2023-02-12T04:12:55.863Z,17.70
2023-02-12T04:15:40.623Z,16.60
2023-02-12T04:18:16.156Z,17.50
2023-02-12T04:20:54.412Z,17.00
2023-02-12T04:23:39.300Z,16.30
2023-02-12T04:26:13.832Z,18.47
2023-02-12T04:28:49.694Z,16.80
2023-02-12T04:31:24.761Z,17.63
2023-02-12T04:34:06.437Z,16.90
2023-02-12T04:36:40.364Z,17.63
2023-02-12T04:39:13.039Z,15.97
2023-02-12T04:41:41.017Z,17.73
2023-02-12T04:44:20.440Z,17.33
2023-02-12T04:46:48.610Z,16.30
2023-02-12T04:49:20.569Z,15.70
2023-02-12T04:51:48.936Z,15.47
2023-02-12T04:54:18.673Z,16.20
2023-02-12T04:56:47.300Z,15.30
2023-02-12T04:59:15.761Z,15.93
2023-02-12T05:01:45.619Z,15.20
2023-02-12T05:04:15.914Z,15.93
2023-02-12T05:06:46.480Z,17.93
2023-02-12T05:09:16.865Z,18.73
2023-02-12T05:11:45.241Z,17.33
2023-02-12T05:14:13.835Z,17.00
2023-02-12T05:16:41.942Z,16.47
2023-02-12T05:19:10.512Z,17.83
2023-02-12T05:21:39.521Z,16.40
2023-02-12T05:24:09.842Z,15.97
2023-02-12T05:26:38.385Z,16.30
2023-02-12T05:29:06.434Z,17.70
2023-02-12T05:31:34.755Z,16.47
2023-02-12T05:34:02.831Z,15.90
2023-02-12T05:36:30.847Z,17.33
2023-02-12T05:39:00.751Z,16.60
2023-02-12T05:41:34.900Z,17.03
2023-02-12T05:44:03.034Z,18.23
2023-02-12T05:46:31.063Z,17.53
2023-02-12T05:48:59.345Z,17.47
2023-02-12T05:51:28.608Z,17.57
2023-02-12T05:53:59.959Z,16.80
2023-02-12T05:56:31.185Z,16.53
2023-02-12T05:59:02.396Z,18.37
2023-02-12T06:01:33.097Z,16.93
2023-02-12T06:04:01.443Z,15.47
2023-02-12T06:06:29.954Z,15.23
2023-02-12T06:08:58.472Z,16.13
2023-02-12T06:11:26.697Z,16.07
2023-02-12T06:13:56.059Z,15.70
2023-02-12T06:16:26.294Z,14.50
2023-02-12T06:18:56.049Z,15.97
2023-02-12T06:21:26.553Z,16.23
2023-02-12T06:23:54.782Z,15.47
2023-02-12T06:26:23.978Z,16.27
2023-02-12T06:28:52.255Z,15.57
2023-02-12T06:31:24.571Z,15.47
2023-02-12T06:33:53.446Z,16.43
2023-02-12T06:36:22.218Z,16.00
2023-02-12T06:38:50.322Z,15.50
2023-02-12T06:41:18.520Z,15.27
2023-02-12T06:43:46.529Z,14.87
2023-02-12T06:46:15.134Z,15.80
2023-02-12T06:48:44.531Z,13.77
2023-02-12T06:51:18.944Z,15.03
2023-02-12T06:53:46.935Z,13.47
2023-02-12T06:56:15.571Z,13.23
2023-02-12T06:58:46.478Z,13.17
2023-02-12T07:01:17.950Z,12.87
2023-02-12T07:03:50.210Z,12.83
2023-02-12T07:06:18.486Z,13.20
2023-02-12T07:08:46.709Z,14.10
2023-02-12T07:11:15.041Z,13.13
2023-02-12T07:13:43.659Z,12.53
2023-02-12T07:16:13.582Z,13.87
2023-02-12T07:18:41.882Z,13.57
2023-02-12T07:21:12.996Z,13.43
2023-02-12T07:23:41.683Z,12.67
2023-02-12T07:26:13.324Z,13.70
2023-02-12T07:28:41.716Z,13.80
2023-02-12T07:31:11.761Z,13.27
2023-02-12T07:33:40.830Z,13.53
2023-02-12T07:36:12.951Z,12.97
2023-02-12T07:38:40.998Z,14.07
2023-02-12T07:41:12.197Z,13.90
2023-02-12T07:43:41.253Z,13.97
2023-02-12T07:46:14.459Z,14.10
2023-02-12T07:48:42.544Z,15.10
2023-02-12T07:51:14.533Z,14.60
2023-02-12T07:53:43.091Z,18.17
2023-02-12T07:56:13.057Z,16.73
2023-02-12T07:58:42.749Z,15.77
2023-02-12T08:01:16.555Z,16.60
2023-02-12T08:03:45.739Z,16.40
2023-02-12T08:06:17.580Z,16.07
2023-02-12T08:08:46.066Z,15.17
2023-02-12T08:11:16.641Z,17.13
2023-02-12T08:13:44.816Z,18.40
2023-02-12T08:16:14.889Z,19.57
2023-02-12T08:18:43.494Z,19.27
2023-02-12T08:21:13.139Z,16.13
2023-02-12T08:23:43.597Z,14.57
2023-02-12T08:26:13.491Z,14.20
2023-02-12T08:28:45.129Z,11.90
2023-02-12T08:31:15.575Z,12.87
2023-02-12T08:33:45.210Z,13.23
2023-02-12T08:36:15.476Z,12.70
2023-02-12T08:38:46.035Z,12.00
2023-02-12T08:41:16.583Z,12.60
2023-02-12T08:43:45.308Z,13.30
2023-02-12T08:46:15.373Z,13.10
2023-02-12T08:48:44.052Z,13.67
2023-02-12T08:51:14.080Z,13.57
2023-02-12T08:53:45.785Z,13.70
2023-02-12T08:56:15.676Z,13.47
2023-02-12T08:58:44.494Z,14.13
2023-02-12T09:01:16.177Z,15.13
2023-02-12T09:03:44.955Z,14.50
2023-02-12T09:06:13.876Z,13.93
2023-02-12T09:08:42.266Z,14.43
2023-02-12T09:11:16.540Z,15.07
2023-02-12T09:13:46.111Z,14.87
2023-02-12T09:16:14.809Z,15.47
2023-02-12T09:18:43.505Z,14.73
2023-02-12T09:21:13.613Z,15.97
2023-02-12T09:23:42.153Z,15.63
2023-02-12T09:26:15.247Z,16.70
2023-02-12T09:28:43.821Z,16.33
2023-02-12T09:31:13.824Z,17.87
2023-02-12T09:33:42.911Z,18.60
2023-02-12T09:36:13.452Z,17.63
2023-02-12T09:38:42.005Z,17.40
2023-02-12T09:41:42.660Z,16.17
2023-02-12T09:44:16.439Z,16.03
2023-02-12T09:46:50.038Z,16.47
2023-02-12T09:49:29.521Z,16.90
2023-02-12T09:51:59.192Z,17.77
2023-02-12T09:54:32.731Z,18.87
2023-02-12T09:57:07.756Z,18.07
2023-02-12T09:59:40.376Z,17.87
2023-02-12T10:02:13.871Z,19.30
2023-02-12T10:04:58.738Z,18.80
2023-02-12T10:07:41.558Z,19.13
2023-02-12T10:10:25.351Z,19.77
2023-02-12T10:12:58.998Z,18.60
2023-02-12T10:15:36.560Z,19.30
2023-02-12T10:18:22.701Z,21.00
2023-02-12T10:21:06.276Z,19.63
2023-02-12T10:24:04.686Z,19.13
2023-02-12T10:26:36.946Z,19.77
2023-02-12T10:29:15.963Z,20.00
2023-02-12T10:31:47.029Z,21.53
2023-02-12T10:34:19.724Z,22.73
2023-02-12T10:36:49.686Z,20.63
2023-02-12T10:39:23.602Z,20.93
2023-02-12T10:41:59.304Z,20.57
2023-02-12T10:44:29.635Z,19.63
2023-02-12T10:46:57.620Z,21.13
2023-02-12T10:49:26.007Z,20.17
2023-02-12T10:52:20.461Z,21.20
2023-02-12T10:54:50.458Z,21.20
2023-02-12T10:57:23.101Z,21.60
2023-02-12T10:59:54.580Z,21.90
2023-02-12T11:02:26.083Z,20.93
2023-02-12T11:04:55.585Z,21.43
2023-02-12T11:07:24.802Z,21.63
2023-02-12T11:09:57.237Z,22.40
2023-02-12T11:12:32.882Z,22.17
2023-02-12T11:15:05.516Z,21.63
2023-02-12T11:17:37.644Z,22.50
2023-02-12T11:20:22.479Z,22.57
2023-02-12T11:22:56.585Z,22.07
2023-02-12T11:25:26.617Z,22.80
2023-02-12T11:28:08.190Z,23.67
2023-02-12T11:30:37.609Z,22.77
2023-02-12T11:33:23.251Z,21.37
2023-02-12T11:35:54.004Z,22.23
2023-02-12T11:38:26.106Z,22.87
2023-02-12T11:40:59.107Z,21.77
2023-02-12T11:43:31.041Z,23.60
2023-02-12T11:46:01.942Z,23.17
2023-02-12T11:48:33.950Z,22.83
2023-02-12T11:51:05.486Z,22.57
2023-02-12T11:53:35.954Z,22.83
2023-02-12T11:56:06.772Z,21.63
2023-02-12T11:58:34.856Z,20.83
2023-02-12T12:01:13.092Z,20.03
2023-02-12T12:03:49.323Z,21.60
2023-02-12T12:06:25.426Z,21.13
2023-02-12T12:08:59.604Z,20.50
2023-02-12T12:11:35.281Z,19.10
2023-02-12T12:14:09.372Z,19.93
2023-02-12T12:17:06.261Z,20.33
2023-02-12T12:19:54.461Z,19.70
2023-02-12T12:22:37.760Z,18.43
2023-02-12T12:25:13.917Z,17.90
2023-02-12T12:28:09.615Z,17.13
2023-02-12T12:30:58.846Z,15.83
2023-02-12T12:33:37.487Z,15.70
2023-02-12T12:36:36.239Z,19.70
2023-02-12T12:39:17.367Z,19.73
2023-02-12T12:41:57.449Z,20.50
2023-02-12T12:44:34.865Z,18.27
2023-02-12T12:47:22.461Z,16.37
2023-02-12T12:50:01.564Z,12.53
2023-02-12T12:52:51.484Z,14.70
2023-02-12T12:55:47.991Z,14.97
2023-02-12T12:58:28.556Z,14.47
2023-02-12T13:01:12.326Z,13.37
2023-02-12T13:04:02.299Z,13.33
2023-02-12T13:06:57.347Z,13.80
2023-02-12T13:09:38.238Z,13.73
2023-02-12T13:12:29.368Z,13.67
2023-02-12T13:15:03.187Z,11.33
2023-02-12T13:17:39.552Z,12.57
2023-02-12T13:20:15.325Z,13.38
2023-02-12T13:22:52.173Z,18.85
2023-02-12T13:25:29.857Z,14.75
2023-02-12T13:28:00.259Z,19.17
2023-02-12T13:30:31.788Z,18.27
2023-02-12T13:33:08.354Z,17.35
2023-02-12T13:35:42.410Z,17.17
2023-02-12T13:38:18.837Z,19.10
2023-02-12T13:40:49.701Z,18.67
2023-02-12T13:43:32.711Z,17.92
2023-02-12T13:46:09.564Z,19.38
2023-02-12T13:48:49.294Z,19.50
2023-02-12T13:51:27.238Z,18.98
2023-02-12T13:54:07.754Z,17.35
2023-02-12T13:56:42.501Z,18.48
2023-02-12T13:59:45.909Z,17.80
2023-02-12T14:02:52.060Z,19.58
2023-02-12T14:05:26.926Z,17.90
2023-02-12T14:07:57.781Z,17.25
2023-02-12T14:10:31.340Z,17.30
2023-02-12T14:13:11.739Z,14.85
2023-02-12T14:15:44.568Z,14.15
2023-02-12T14:18:34.010Z,15.60
2023-02-12T14:21:38.166Z,14.90
2023-02-12T14:24:45.624Z,15.38
2023-02-12T14:27:39.077Z,15.20
2023-02-12T14:30:32.810Z,14.15
2023-02-12T14:33:23.456Z,13.40
2023-02-12T14:36:15.597Z,12.38
2023-02-12T14:39:03.201Z,13.75
2023-02-12T14:41:41.840Z,14.27
2023-02-12T14:44:44.470Z,13.40
2023-02-12T14:47:51.244Z,13.55
2023-02-12T14:50:24.527Z,13.23
2023-02-12T14:53:01.325Z,14.95
2023-02-12T14:55:34.403Z,14.77
2023-02-12T14:58:05.931Z,15.70
2023-02-12T15:00:40.110Z,14.77
2023-02-12T15:03:26.572Z,15.60
2023-02-12T15:06:04.011Z,14.25
2023-02-12T15:08:44.799Z,12.75
2023-02-12T15:11:28.114Z,14.38
2023-02-12T15:14:01.130Z,15.13
2023-02-12T15:16:35.680Z,15.48
2023-02-12T15:19:13.517Z,15.13
2023-02-12T15:21:43.459Z,17.05
2023-02-12T15:24:13.744Z,17.58
2023-02-12T15:26:45.377Z,17.45
2023-02-12T15:29:22.193Z,16.75
2023-02-12T15:31:55.281Z,15.52
2023-02-12T15:34:25.896Z,14.98
2023-02-12T15:37:02.133Z,16.27
2023-02-12T15:39:39.104Z,17.17
2023-02-12T15:42:23.829Z,16.50
2023-02-12T15:44:51.825Z,15.75
2023-02-12T15:47:24.765Z,16.20
2023-02-12T15:50:00.287Z,17.10
2023-02-12T15:52:37.511Z,15.90
2023-02-12T15:55:07.432Z,15.65
2023-02-12T15:57:35.489Z,15.38
2023-02-12T16:00:08.987Z,17.77
2023-02-12T16:02:43.135Z,17.77
2023-02-12T16:05:16.723Z,18.50
2023-02-12T16:07:47.802Z,18.80
2023-02-12T16:10:17.388Z,18.92
2023-02-12T16:12:46.019Z,19.92
2023-02-12T16:15:29.004Z,18.63
2023-02-12T16:17:58.464Z,19.83
2023-02-12T16:20:28.741Z,19.55
2023-02-12T16:22:58.498Z,19.17
2023-02-12T16:25:29.561Z,20.35
2023-02-12T16:28:02.935Z,20.10
2023-02-12T16:30:32.892Z,21.33
2023-02-12T16:33:02.213Z,21.13
2023-02-12T16:35:32.561Z,21.98
2023-02-12T16:38:41.958Z,21.80
2023-02-12T16:41:23.555Z,22.52
2023-02-12T16:44:12.744Z,21.73
2023-02-12T16:46:47.227Z,23.02
2023-02-12T16:49:18.524Z,23.15
2023-02-12T16:51:47.604Z,23.20
2023-02-12T16:54:37.575Z,22.88
2023-02-12T16:57:05.708Z,23.90
2023-02-12T16:59:34.592Z,24.35
2023-02-12T17:02:05.291Z,24.90
2023-02-12T17:04:33.256Z,24.73
2023-02-12T17:07:01.293Z,24.92
2023-02-12T17:09:30.077Z,25.63
2023-02-12T17:11:59.423Z,24.23
2023-02-12T17:14:27.344Z,25.93
2023-02-12T17:16:55.394Z,24.67
2023-02-12T17:19:25.820Z,25.10
2023-02-12T17:21:54.593Z,25.43
2023-02-12T17:24:25.418Z,26.13
2023-02-12T17:26:53.643Z,24.70
2023-02-12T17:29:25.959Z,24.37
2023-02-12T17:31:56.203Z,24.53
2023-02-12T17:34:24.972Z,24.43
2023-02-12T17:36:53.720Z,24.43
2023-02-12T17:39:22.161Z,25.33
2023-02-12T17:41:51.563Z,23.67
2023-02-12T17:44:19.552Z,23.47
2023-02-12T17:46:48.926Z,23.43
2023-02-12T17:49:16.875Z,23.57
2023-02-12T17:51:44.838Z,22.90
2023-02-12T17:54:14.084Z,23.87
2023-02-12T17:56:42.059Z,23.10
2023-02-12T17:59:10.931Z,23.67
2023-02-12T18:01:40.493Z,23.67
2023-02-12T18:04:09.897Z,23.87
2023-02-12T18:06:37.931Z,22.43
2023-02-12T18:09:05.885Z,22.30
2023-02-12T18:11:34.190Z,23.67
2023-02-12T18:14:02.929Z,22.30
2023-02-12T18:16:34.924Z,21.75
2023-02-12T18:19:06.914Z,21.73
2023-02-12T18:21:36.432Z,23.03
2023-02-12T18:24:05.010Z,20.93
2023-02-12T18:26:34.146Z,22.67
2023-02-12T18:29:02.931Z,23.47
2023-02-12T18:31:31.350Z,22.03
2023-02-12T18:34:00.149Z,22.33
2023-02-12T18:36:28.149Z,21.87
2023-02-12T18:38:57.524Z,22.53
2023-02-12T18:41:27.297Z,21.30
2023-02-12T18:43:55.708Z,22.20
2023-02-12T18:46:28.767Z,23.53
2023-02-12T18:48:57.519Z,22.97
2023-02-12T18:51:28.820Z,24.13
2023-02-12T18:54:01.504Z,22.17
2023-02-12T18:56:30.527Z,22.23
2023-02-12T18:58:59.931Z,22.97
2023-02-12T19:01:29.351Z,22.80
2023-02-12T19:04:00.160Z,23.17
2023-02-12T19:06:29.569Z,23.23
2023-02-12T19:09:00.150Z,23.20
2023-02-12T19:11:29.144Z,25.00
2023-02-12T19:13:57.409Z,24.83
2023-02-12T19:16:26.145Z,25.53
2023-02-12T19:18:58.249Z,25.67
2023-02-12T19:21:27.075Z,23.20
2023-02-12T19:23:55.436Z,25.63
2023-02-12T19:26:30.246Z,24.80
2023-02-12T19:28:58.902Z,23.93
2023-02-12T19:31:29.723Z,23.53
2023-02-12T19:33:59.638Z,24.87
2023-02-12T19:36:29.107Z,24.67
2023-02-12T19:38:57.412Z,24.47
2023-02-12T19:41:28.725Z,24.80
2023-02-12T19:43:59.335Z,23.97
2023-02-12T19:46:29.949Z,24.53
2023-02-12T19:49:00.993Z,23.30
2023-02-12T19:51:30.714Z,23.73
2023-02-12T19:54:01.663Z,26.17
2023-02-12T19:56:31.338Z,24.27
2023-02-12T19:59:00.104Z,24.20
2023-02-12T20:01:28.818Z,23.07
2023-02-12T20:03:57.035Z,22.90
2023-02-12T20:06:27.564Z,24.90
2023-02-12T20:08:56.078Z,23.70
2023-02-12T20:11:26.224Z,23.73
2023-02-12T20:13:56.274Z,24.63
2023-02-12T20:16:25.774Z,23.27
2023-02-12T20:18:55.672Z,22.83
2023-02-12T20:21:26.813Z,25.03
2023-02-12T20:23:55.261Z,24.03
2023-02-12T20:26:24.608Z,24.70
2023-02-12T20:28:53.123Z,24.40
2023-02-12T20:31:24.780Z,24.33
2023-02-12T20:33:55.738Z,23.70
2023-02-12T20:36:24.513Z,22.80
2023-02-12T20:38:54.268Z,22.47
2023-02-12T20:41:22.217Z,25.53
2023-02-12T20:43:50.455Z,25.80
2023-02-12T20:46:21.404Z,24.40
2023-02-12T20:48:51.062Z,26.00
2023-02-12T20:51:20.893Z,24.77
2023-02-12T20:53:54.502Z,24.47
2023-02-12T20:56:25.405Z,24.33
2023-02-12T20:58:54.070Z,23.70
2023-02-12T21:01:24.729Z,21.83
2023-02-12T21:03:55.613Z,23.10
2023-02-12T21:06:25.758Z,23.90
2023-02-12T21:08:53.804Z,22.80
2023-02-12T21:11:23.570Z,24.20
2023-02-12T21:14:02.158Z,23.87
2023-02-12T21:16:32.864Z,22.57
2023-02-12T21:19:02.723Z,22.23
2023-02-12T21:21:32.374Z,22.60
2023-02-12T21:24:02.212Z,23.77
2023-02-12T21:26:32.112Z,22.90
2023-02-12T21:29:02.173Z,23.90
2023-02-12T21:31:32.467Z,23.50
2023-02-12T21:34:03.619Z,22.97
2023-02-12T21:36:33.167Z,22.43
2023-02-12T21:39:03.012Z,22.57
2023-02-12T21:41:34.518Z,22.83
2023-02-12T21:44:04.395Z,22.40
2023-02-12T21:46:32.730Z,22.53
2023-02-12T21:49:02.433Z,22.03
2023-02-12T21:51:32.090Z,23.50
2023-02-12T21:54:04.730Z,22.43
2023-02-12T21:56:33.041Z,23.43
2023-02-12T21:59:01.328Z,24.63
2023-02-12T22:01:32.274Z,23.77
2023-02-12T22:04:03.527Z,22.30
2023-02-12T22:06:31.923Z,22.87
2023-02-12T22:09:03.404Z,22.93
2023-02-12T22:11:31.397Z,23.27
2023-02-12T22:13:59.372Z,21.57
2023-02-12T22:16:28.896Z,22.37
2023-02-12T22:18:59.325Z,22.50
2023-02-12T22:21:30.368Z,23.10
2023-02-12T22:24:01.046Z,21.77
2023-02-12T22:26:30.852Z,21.70
2023-02-12T22:29:00.745Z,23.60
2023-02-12T22:31:31.901Z,23.27
2023-02-12T22:34:02.051Z,21.93
2023-02-12T22:36:31.928Z,22.87
2023-02-12T22:39:01.619Z,23.07
2023-02-12T22:41:30.364Z,22.97
2023-02-12T22:44:00.270Z,22.13
2023-02-12T22:46:29.023Z,23.03
2023-02-12T22:48:57.005Z,23.33
2023-02-12T22:51:28.493Z,22.97
2023-02-12T22:53:58.509Z,22.53
2023-02-12T22:56:27.194Z,23.53
2023-02-12T22:58:56.822Z,24.00
2023-02-12T23:01:25.554Z,23.17
2023-02-12T23:03:53.976Z,22.70
2023-02-12T23:06:23.636Z,23.23
2023-02-12T23:08:52.986Z,23.00
2023-02-12T23:11:24.463Z,21.63
2023-02-12T23:13:52.666Z,23.70
2023-02-12T23:16:20.713Z,22.37
2023-02-12T23:18:48.985Z,23.70
2023-02-12T23:21:17.857Z,22.10
2023-02-12T23:23:45.792Z,23.87
2023-02-12T23:26:13.777Z,23.03
2023-02-12T23:28:43.176Z,22.90
2023-02-12T23:31:11.268Z,22.43
2023-02-12T23:33:39.292Z,22.13
2023-02-12T23:36:08.101Z,21.57
2023-02-12T23:38:36.064Z,20.47
2023-02-12T23:41:04.306Z,22.53
2023-02-12T23:43:33.383Z,19.60
2023-02-12T23:46:03.808Z,20.70
2023-02-12T23:48:31.788Z,24.03
2023-02-12T23:50:59.909Z,23.33
2023-02-12T23:53:28.058Z,23.50
2023-02-12T23:55:56.037Z,23.17
2023-02-12T23:58:24.181Z,22.50
